Time;durP1;ratioP1;P1;durP2;ratioP2;P2;SDS_P1;SDS_P2;PMS_P1;PMS_P2;Temp;Humidity;BMP_temperature;BMP_pressure;BME280_temperature;BME280_humidity;BME280_pressure;Samples;Min_cycle;Max_cycle;Signal;HPM_P1;HPM_P2
2021/03/23 00:00:36;;;;;;;;;;;;;;;;;;5059243;28;19958;-67
2021/03/23 00:03:01;;;;;;;;;;;;;;;;;;5053661;28;20390;-68
2021/03/23 00:05:26;;;;;;;;;;;;;;;;;;5059301;28;19920;-68
2021/03/23 00:07:51;;;;;;;;;;;;;;;;;;5070443;28;19913;-68
2021/03/23 00:10:16;;;;;;;;;;;;;;;;;;5059817;28;19913;-68
2021/03/23 00:12:41;;;;;;;;;;;;;;;;;;5069447;28;20007;-67
2021/03/23 00:15:07;;;;;;;;;;;;;;;;;;5052656;28;19913;-68
2021/03/23 00:17:32;;;;;;;;;;;;;;;;;;5053489;28;20443;-68
2021/03/23 00:19:57;;;;;;;;;;;;;;;;;;5057710;28;19966;-68
2021/03/23 00:22:22;;;;;;;;;;;;;;;;;;5056042;28;19916;-68
2021/03/23 00:24:47;;;;;;;;;;;;;;;;;;5066946;28;19913;-68
2021/03/23 00:27:12;;;;;;;;;;;;;;;;;;5052188;28;19909;-68
2021/03/23 00:29:37;;;;;;;;;;;;;;;;;;5066096;28;19925;-67
2021/03/23 00:32:02;;;;;;;;;;;;;;;;;;5068870;28;19925;-68
2021/03/23 00:34:27;;;;;;;;;;;;;;;;;;5062025;28;20026;-68
2021/03/23 00:36:53;;;;;;;;;;;;;;;;;;5068173;28;19917;-68
2021/03/23 00:39:18;;;;;;;;;;;;;;;;;;5060303;28;19913;-68
2021/03/23 00:41:43;;;;;;;;;;;;;;;;;;5064179;28;19996;-70
2021/03/23 00:44:08;;;;;;;;;;;;;;;;;;5069407;28;19959;-68
2021/03/23 00:46:33;;;;;;;;;;;;;;;;;;5056923;28;20395;-67
2021/03/23 00:48:58;;;;;;;;;;;;;;;;;;5074467;28;19954;-67
2021/03/23 00:51:23;;;;;;;;;;;;;;;;;;5071987;28;19960;-68
2021/03/23 00:53:48;;;;;;;;;;;;;;;;;;5075358;28;19948;-67
2021/03/23 00:56:13;;;;;;;;;;;;;;;;;;5070439;28;19919;-67
2021/03/23 00:58:39;;;;;;;;;;;;;;;;;;5071842;28;19923;-68
2021/03/23 01:01:04;;;;;;;;;;;;;;;;;;5062916;28;19920;-70
2021/03/23 01:03:29;;;;;;;;;;;;;;;;;;5062967;28;19917;-72
2021/03/23 01:05:54;;;;;;;;;;;;;;;;;;5052240;28;19920;-68
2021/03/23 01:08:19;;;;;;;;;;;;;;;;;;5053988;28;19913;-69
2021/03/23 01:10:44;;;;;;;;;;;;;;;;;;5068464;28;19922;-67
2021/03/23 01:13:09;;;;;;;;;;;;;;;;;;5075071;28;19944;-69
2021/03/23 01:15:35;;;;;;;;;;;;;;;;;;5053895;28;19917;-68
2021/03/23 01:18:00;;;;;;;;;;;;;;;;;;5060941;28;19970;-68
2021/03/23 01:20:25;;;;;;;;;;;;;;;;;;5068242;28;19912;-68
2021/03/23 01:22:50;;;;;;;;;;;;;;;;;;5057129;28;19912;-68
2021/03/23 01:25:15;;;;;;;;;;;;;;;;;;5055017;28;19958;-67
2021/03/23 01:27:40;;;;;;;;;;;;;;;;;;5053013;28;20351;-68
2021/03/23 01:30:05;;;;;;;;;;;;;;;;;;5062544;28;19912;-67
2021/03/23 01:32:30;;;;;;;;;;;;;;;;;;5059670;28;19920;-67
2021/03/23 01:34:55;;;;;;;;;;;;;;;;;;5066123;28;19919;-67
2021/03/23 01:37:21;;;;;;;;;;;;;;;;;;5060306;28;19916;-67
2021/03/23 01:39:46;;;;;;;;;;;;;;;;;;5055418;28;19913;-67
2021/03/23 01:42:11;;;;;;;;;;;;;;;;;;5066942;28;19912;-68
2021/03/23 01:44:36;;;;;;;;;;;;;;;;;;5071305;28;19917;-68
2021/03/23 01:47:01;;;;;;;;;;;;;;;;;;5051958;28;19962;-68
2021/03/23 01:49:26;;;;;;;;;;;;;;;;;;5054392;28;19970;-68
2021/03/23 01:51:51;;;;;;;;;;;;;;;;;;5073805;28;19916;-68
2021/03/23 01:54:16;;;;;;;;;;;;;;;;;;5069135;28;19962;-69
2021/03/23 01:56:41;;;;;;;;;;;;;;;;;;5060079;28;19916;-68
2021/03/23 01:59:07;;;;;;;;;;;;;;;;;;5054740;28;20015;-67
2021/03/23 02:01:32;;;;;;;;;;;;;;;;;;5069598;28;19960;-69
2021/03/23 02:03:57;;;;;;;;;;;;;;;;;;5065263;28;19915;-67
2021/03/23 02:06:22;;;;;;;;;;;;;;;;;;5055835;28;19919;-68
2021/03/23 02:08:47;;;;;;;;;;;;;;;;;;5074227;28;19909;-67
2021/03/23 02:11:13;;;;;;;;;;;;;;;;;;5062084;28;19912;-68
2021/03/23 02:13:38;;;;;;;;;;;;;;;;;;5061418;28;19916;-68
2021/03/23 02:16:03;;;;;;;;;;;;;;;;;;5055134;28;19913;-69
2021/03/23 02:18:28;;;;;;;;;;;;;;;;;;5071928;28;19916;-68
2021/03/23 02:20:53;;;;;;;;;;;;;;;;;;5067642;28;19919;-68
2021/03/23 02:23:18;;;;;;;;;;;;;;;;;;5054759;28;19913;-68
2021/03/23 02:25:43;;;;;;;;;;;;;;;;;;5051156;28;19913;-68
2021/03/23 02:28:08;;;;;;;;;;;;;;;;;;5059249;28;19920;-68
2021/03/23 02:30:33;;;;;;;;;;;;;;;;;;5057554;28;19916;-68
2021/03/23 02:32:59;;;;;;;;;;;;;;;;;;5071999;28;19936;-67
2021/03/23 02:35:24;;;;;;;;;;;;;;;;;;5061093;28;19935;-67
2021/03/23 02:37:49;;;;;;;;;;;;;;;;;;5093905;28;19920;-67
2021/03/23 02:40:15;;;;;;;;;;;;;;;;;;5063846;28;21421;-66
2021/03/23 02:42:40;;;;;;;;;;;;;;;;;;5066467;28;20267;-69
2021/03/23 02:45:05;;;;;;;;;;;;;;;;;;5064533;28;20391;-68
2021/03/23 02:47:30;;;;;;;;;;;;;;;;;;5052638;28;20356;-68
2021/03/23 02:49:56;;;;;;;;;;;;;;;;;;5068804;28;20375;-69
2021/03/23 02:52:21;;;;;;;;;;;;;;;;;;5052255;28;19912;-68
2021/03/23 02:54:46;;;;;;;;;;;;;;;;;;5059041;28;19913;-68
2021/03/23 02:57:11;;;;;;;;;;;;;;;;;;5069635;28;19916;-68
2021/03/23 02:59:36;;;;;;;;;;;;;;;;;;5057099;28;20003;-68
2021/03/23 03:02:03;;;;;;;;;;;;;;;;;;5050622;28;19994;-68
2021/03/23 03:04:28;;;;;;;;;;;;;;;;;;5055038;28;19916;-68
2021/03/23 03:06:53;;;;;;;;;;;;;;;;;;5057622;28;19913;-68
2021/03/23 03:09:18;;;;;;;;;;;;;;;;;;5072006;28;19982;-67
2021/03/23 03:11:43;;;;;;;;;;;;;;;;;;5070583;28;20310;-68
2021/03/23 03:14:08;;;;;;;;;;;;;;;;;;5066401;28;19963;-67
2021/03/23 03:16:33;;;;;;;;;;;;;;;;;;5050099;28;20363;-68
2021/03/23 03:18:59;;;;;;;;;;;;;;;;;;5052550;28;19916;-67
2021/03/23 03:21:24;;;;;;;;;;;;;;;;;;5071109;28;19919;-68
2021/03/23 03:23:49;;;;;;;;;;;;;;;;;;5063659;28;20307;-68
2021/03/23 03:26:14;;;;;;;;;;;;;;;;;;5069952;28;20287;-67
2021/03/23 03:28:39;;;;;;;;;;;;;;;;;;5065751;28;20386;-67
2021/03/23 03:31:04;;;;;;;;;;;;;;;;;;5058282;28;20007;-67
2021/03/23 03:33:29;;;;;;;;;;;;;;;;;;5052972;28;19917;-67
2021/03/23 03:35:54;;;;;;;;;;;;;;;;;;5061115;28;19924;-68
2021/03/23 03:38:20;;;;;;;;;;;;;;;;;;5072260;28;20342;-67
2021/03/23 03:40:45;;;;;;;;;;;;;;;;;;5064417;28;20287;-66
2021/03/23 03:43:10;;;;;;;;;;;;;;;;;;5067971;28;20007;-66
2021/03/23 03:45:35;;;;;;;;;;;;;;;;;;5058724;28;19999;-69
2021/03/23 03:48:00;;;;;;;;;;;;;;;;;;5073042;28;19952;-68
2021/03/23 03:50:25;;;;;;;;;;;;;;;;;;5069159;28;20352;-68
2021/03/23 03:52:51;;;;;;;;;;;;;;;;;;5065048;28;19939;-67
2021/03/23 03:55:16;;;;;;;;;;;;;;;;;;5056350;28;19915;-67
2021/03/23 03:57:41;;;;;;;;;;;;;;;;;;5053131;28;19999;-69
2021/03/23 04:00:06;;;;;;;;;;;;;;;;;;5092922;28;19999;-68
2021/03/23 04:02:31;;;;;;;;;;;;;;;;;;5076822;28;19955;-68
2021/03/23 04:04:56;;;;;;;;;;;;;;;;;;5062871;28;19947;-68
2021/03/23 04:07:21;;;;;;;;;;;;;;;;;;5052115;28;19913;-67
2021/03/23 04:09:46;;;;;;;;;;;;;;;;;;5061609;28;19909;-67
2021/03/23 04:12:11;;;;;;;;;;;;;;;;;;5059647;28;19913;-67
2021/03/23 04:14:37;;;;;;;;;;;;;;;;;;5069685;28;20002;-67
2021/03/23 04:17:02;;;;;;;;;;;;;;;;;;5052568;28;20000;-68
2021/03/23 04:19:27;;;;;;;;;;;;;;;;;;5060067;28;19908;-68
2021/03/23 04:21:52;;;;;;;;;;;;;;;;;;5074924;28;19913;-68
2021/03/23 04:24:17;;;;;;;;;;;;;;;;;;5075954;28;19908;-68
2021/03/23 04:26:42;;;;;;;;;;;;;;;;;;5061222;28;19920;-68
2021/03/23 04:29:07;;;;;;;;;;;;;;;;;;5075701;28;19990;-68
2021/03/23 04:31:33;;;;;;;;;;;;;;;;;;5055578;28;19983;-68
2021/03/23 04:33:58;;;;;;;;;;;;;;;;;;5056279;28;19951;-68
2021/03/23 04:36:23;;;;;;;;;;;;;;;;;;5085712;28;19912;-68
2021/03/23 04:38:48;;;;;;;;;;;;;;;;;;5057437;28;19916;-68
2021/03/23 04:41:13;;;;;;;;;;;;;;;;;;5053955;28;19917;-67
2021/03/23 04:43:38;;;;;;;;;;;;;;;;;;5059872;28;19913;-68
2021/03/23 04:46:03;;;;;;;;;;;;;;;;;;5052881;28;20291;-68
2021/03/23 04:48:28;;;;;;;;;;;;;;;;;;5055952;28;19916;-69
2021/03/23 04:50:53;;;;;;;;;;;;;;;;;;5065164;28;19913;-68
2021/03/23 04:53:19;;;;;;;;;;;;;;;;;;5055727;28;19909;-68
2021/03/23 04:55:44;;;;;;;;;;;;;;;;;;5056510;28;19943;-68
2021/03/23 04:58:09;;;;;;;;;;;;;;;;;;5066565;28;19920;-69
2021/03/23 05:00:34;;;;;;;;;;;;;;;;;;5062985;28;19956;-69
2021/03/23 05:02:59;;;;;;;;;;;;;;;;;;5071588;28;20361;-69
2021/03/23 05:05:24;;;;;;;;;;;;;;;;;;5072887;28;20358;-70
2021/03/23 05:07:49;;;;;;;;;;;;;;;;;;5064107;28;20351;-68
2021/03/23 05:10:14;;;;;;;;;;;;;;;;;;5055978;28;20354;-68
2021/03/23 05:12:39;;;;;;;;;;;;;;;;;;5061349;28;19956;-68
2021/03/23 05:15:05;;;;;;;;;;;;;;;;;;5059602;28;20022;-68
2021/03/23 05:17:30;;;;;;;;;;;;;;;;;;5072359;28;19922;-68
2021/03/23 05:19:55;;;;;;;;;;;;;;;;;;5056484;28;19913;-68
2021/03/23 05:22:20;;;;;;;;;;;;;;;;;;5075168;28;19913;-68
2021/03/23 05:24:45;;;;;;;;;;;;;;;;;;5059594;28;20091;-68
2021/03/23 05:27:10;;;;;;;;;;;;;;;;;;5072649;28;19910;-68
2021/03/23 05:29:36;;;;;;;;;;;;;;;;;;5057125;28;19913;-69
2021/03/23 05:32:01;;;;;;;;;;;;;;;;;;5058372;28;19925;-68
2021/03/23 05:34:26;;;;;;;;;;;;;;;;;;5069062;28;20367;-68
2021/03/23 05:36:51;;;;;;;;;;;;;;;;;;5061483;28;19920;-67
2021/03/23 05:39:16;;;;;;;;;;;;;;;;;;5063316;28;19917;-68
2021/03/23 05:41:42;;;;;;;;;;;;;;;;;;5066178;28;19920;-68
2021/03/23 05:44:07;;;;;;;;;;;;;;;;;;5066852;28;19912;-68
2021/03/23 05:46:33;;;;;;;;;;;;;;;;;;5068255;28;20004;-68
2021/03/23 05:48:58;;;;;;;;;;;;;;;;;;5074479;28;20295;-68
2021/03/23 05:51:23;;;;;;;;;;;;;;;;;;5066716;28;19919;-67
2021/03/23 05:53:48;;;;;;;;;;;;;;;;;;5059096;28;20368;-67
2021/03/23 05:56:13;;;;;;;;;;;;;;;;;;5051479;28;20356;-68
2021/03/23 05:58:38;;;;;;;;;;;;;;;;;;5054739;28;20433;-67
2021/03/23 06:01:03;;;;;;;;;;;;;;;;;;5060972;28;20331;-67
2021/03/23 06:03:28;;;;;;;;;;;;;;;;;;5061149;28;20356;-67
2021/03/23 06:05:54;;;;;;;;;;;;;;;;;;5058564;28;19971;-66
2021/03/23 06:08:20;;;;;;;;;;;;;;;;;;5060008;28;19917;-65
2021/03/23 06:10:45;;;;;;;;;;;;;;;;;;5057317;28;19920;-66
2021/03/23 06:13:10;;;;;;;;;;;;;;;;;;5069628;28;19919;-69
2021/03/23 06:15:35;;;;;;;;;;;;;;;;;;5060354;28;19913;-68
2021/03/23 06:18:01;;;;;;;;;;;;;;;;;;5072433;28;19995;-68
2021/03/23 06:20:26;;;;;;;;;;;;;;;;;;5060335;28;20376;-67
2021/03/23 06:22:51;;;;;;;;;;;;;;;;;;5062813;28;19912;-68
2021/03/23 06:25:16;;;;;;;;;;;;;;;;;;5055864;28;19916;-66
2021/03/23 06:27:41;;;;;;;;;;;;;;;;;;5080758;28;19935;-69
2021/03/23 06:30:06;;;;;;;;;;;;;;;;;;5072881;28;19913;-68
2021/03/23 06:32:31;;;;;;;;;;;;;;;;;;5035118;28;20003;-68
2021/03/23 06:34:56;;;;;;;;;;;;;;;;;;5043158;28;19913;-69
2021/03/23 06:37:22;;;;;;;;;;;;;;;;;;5041448;28;19917;-69
2021/03/23 06:39:47;;;;;;;;;;;;;;;;;;5038666;28;19913;-68
2021/03/23 06:42:12;;;;;;;;;;;;;;;;;;5077803;28;19919;-68
2021/03/23 06:44:37;;;;;;;;;;;;;;;;;;5052926;28;19913;-69
2021/03/23 06:47:02;;;;;;;;;;;;;;;;;;5034387;28;19967;-68
2021/03/23 06:49:30;;;;;;;;;;;;;;;;;;5036756;28;19966;-68
2021/03/23 06:52:01;;;;;;;;;;;;;;;;;;5035034;28;19910;-68
2021/03/23 06:54:26;;;;;;;;;;;;;;;;;;5046582;28;19919;-69
2021/03/23 06:56:51;;;;;;;;;;;;;;;;;;5050239;28;19913;-67
2021/03/23 06:59:16;;;;;;;;;;;;;;;;;;5054479;28;20048;-68
2021/03/23 07:01:42;;;;;;;;;;;;;;;;;;5084091;28;19999;-68
2021/03/23 07:04:07;;;;;;;;;;;;;;;;;;5080319;28;19919;-68
2021/03/23 07:06:32;;;;;;;;;;;;;;;;;;5042443;28;19959;-68
2021/03/23 07:08:57;;;;;;;;;;;;;;;;;;5048569;28;19952;-66
2021/03/23 07:11:22;;;;;;;;;;;;;;;;;;5049052;28;19913;-67
2021/03/23 07:13:47;;;;;;;;;;;;;;;;;;5043656;28;19921;-68
2021/03/23 07:16:12;;;;;;;;;;;;;;;;;;5037455;28;19913;-68
2021/03/23 07:18:37;;;;;;;;;;;;;;;;;;5085262;28;19913;-68
2021/03/23 07:21:02;;;;;;;;;;;;;;;;;;5084941;28;19916;-68
2021/03/23 07:23:28;;;;;;;;;;;;;;;;;;5047510;28;19917;-68
2021/03/23 07:25:53;;;;;;;;;;;;;;;;;;5039698;28;19909;-68
2021/03/23 07:28:18;;;;;;;;;;;;;;;;;;5038757;28;19919;-69
2021/03/23 07:30:43;;;;;;;;;;;;;;;;;;5077246;28;19916;-68
2021/03/23 07:33:08;;;;;;;;;;;;;;;;;;5082120;28;19920;-69
2021/03/23 07:35:33;;;;;;;;;;;;;;;;;;5049619;28;19913;-70
2021/03/23 07:37:59;;;;;;;;;;;;;;;;;;5083606;28;20011;-68
2021/03/23 07:40:24;;;;;;;;;;;;;;;;;;5043314;28;19913;-67
2021/03/23 07:42:49;;;;;;;;;;;;;;;;;;5053818;28;19964;-67
2021/03/23 07:45:14;;;;;;;;;;;;;;;;;;5059582;28;19951;-68
2021/03/23 07:47:39;;;;;;;;;;;;;;;;;;5063597;28;19959;-68
2021/03/23 07:50:04;;;;;;;;;;;;;;;;;;5052675;28;19964;-67
2021/03/23 07:52:30;;;;;;;;;;;;;;;;;;5082203;28;19916;-68
2021/03/23 07:54:55;;;;;;;;;;;;;;;;;;5032631;28;19921;-69
2021/03/23 07:57:20;;;;;;;;;;;;;;;;;;5040655;28;19927;-66
2021/03/23 07:59:45;;;;;;;;;;;;;;;;;;5044431;28;19913;-67
2021/03/23 08:02:10;;;;;;;;;;;;;;;;;;5038057;28;20055;-68
2021/03/23 08:04:35;;;;;;;;;;;;;;;;;;5041191;28;20000;-69
2021/03/23 08:07:00;;;;;;;;;;;;;;;;;;5037996;28;19913;-68
2021/03/23 08:09:25;;;;;;;;;;;;;;;;;;5049523;28;19920;-68
2021/03/23 08:11:51;;;;;;;;;;;;;;;;;;5075207;28;19913;-68
2021/03/23 08:14:16;;;;;;;;;;;;;;;;;;5055923;28;19920;-68
2021/03/23 08:16:41;;;;;;;;;;;;;;;;;;5081498;28;19949;-68
2021/03/23 08:19:06;;;;;;;;;;;;;;;;;;5055996;28;19916;-69
2021/03/23 08:21:31;;;;;;;;;;;;;;;;;;5049927;28;20330;-68
2021/03/23 08:23:56;;;;;;;;;;;;;;;;;;5079803;28;20371;-69
2021/03/23 08:26:21;;;;;;;;;;;;;;;;;;5046841;28;19920;-68
2021/03/23 08:28:50;;;;;;;;;;;;;;;;;;5075216;28;19944;-69
2021/03/23 08:31:16;;;;;;;;;;;;;;;;;;5084177;28;20011;-67
2021/03/23 08:33:41;;;;;;;;;;;;;;;;;;5095613;28;19952;-69
2021/03/23 08:36:06;;;;;;;;;;;;;;;;;;5058380;28;20336;-69
2021/03/23 08:38:31;;;;;;;;;;;;;;;;;;5049013;28;19916;-68
2021/03/23 08:40:57;;;;;;;;;;;;;;;;;;5050966;28;19912;-68
2021/03/23 08:43:22;;;;;;;;;;;;;;;;;;5056462;28;19912;-68
2021/03/23 08:45:47;;;;;;;;;;;;;;;;;;5085195;28;20277;-67
2021/03/23 08:48:12;;;;;;;;;;;;;;;;;;5060416;28;19916;-69
2021/03/23 08:50:37;;;;;;;;;;;;;;;;;;5065348;28;19909;-68
2021/03/23 08:53:04;;;;;;;;;;;;;;;;;;5071475;28;19913;-67
2021/03/23 08:55:34;;;;;;;;;;;;;;;;;;5048047;28;19980;-67
2021/03/23 08:57:59;;;;;;;;;;;;;;;;;;5069540;28;20332;-67
2021/03/23 09:00:24;;;;;;;;;;;;;;;;;;5064771;28;20041;-66
2021/03/23 09:02:49;;;;;;;;;;;;;;;;;;5054499;28;19924;-67
2021/03/23 09:05:14;;;;;;;;;;;;;;;;;;5054161;28;19909;-66
2021/03/23 09:07:39;;;;;;;;;;;;;;;;;;5041757;28;19913;-66
2021/03/23 09:10:04;;;;;;;;;;;;;;;;;;5038814;28;19935;-68
2021/03/23 09:12:29;;;;;;;;;;;;;;;;;;5062743;28;19948;-69
2021/03/23 09:14:55;;;;;;;;;;;;;;;;;;5060065;28;19947;-67
2021/03/23 09:17:21;;;;;;;;;;;;;;;;;;5033601;28;20039;-68
2021/03/23 09:19:46;;;;;;;;;;;;;;;;;;5072809;28;19944;-70
2021/03/23 09:22:11;;;;;;;;;;;;;;;;;;5052445;28;19960;-67
2021/03/23 09:24:36;;;;;;;;;;;;;;;;;;5053903;28;19913;-68
2021/03/23 09:27:01;;;;;;;;;;;;;;;;;;5050096;28;19916;-68
2021/03/23 09:29:26;;;;;;;;;;;;;;;;;;5049721;28;19912;-67
2021/03/23 09:31:51;;;;;;;;;;;;;;;;;;5077964;28;20360;-69
2021/03/23 09:34:17;;;;;;;;;;;;;;;;;;5036156;28;19921;-67
2021/03/23 09:36:44;;;;;;;;;;;;;;;;;;5077486;28;19934;-69
2021/03/23 09:39:09;;;;;;;;;;;;;;;;;;5047168;28;19917;-67
2021/03/23 09:41:36;;;;;;;;;;;;;;;;;;5052681;28;19923;-69
2021/03/23 09:44:01;;;;;;;;;;;;;;;;;;5038939;28;19913;-68
2021/03/23 09:46:27;;;;;;;;;;;;;;;;;;5042592;28;19967;-68
2021/03/23 09:48:52;;;;;;;;;;;;;;;;;;5040928;28;19920;-70
2021/03/23 09:51:17;;;;;;;;;;;;;;;;;;5040826;28;20066;-68
2021/03/23 09:53:43;;;;;;;;;;;;;;;;;;5067762;28;19913;-68
2021/03/23 09:56:08;;;;;;;;;;;;;;;;;;5032915;28;20347;-68
2021/03/23 09:58:33;;;;;;;;;;;;;;;;;;5054295;28;20010;-69
2021/03/23 10:00:58;;;;;;;;;;;;;;;;;;5041571;28;19917;-69
2021/03/23 10:03:23;;;;;;;;;;;;;;;;;;5054544;28;19909;-68
2021/03/23 10:05:49;;;;;;;;;;;;;;;;;;5083620;28;19909;-69
2021/03/23 10:08:14;;;;;;;;;;;;;;;;;;5037431;28;19924;-67
2021/03/23 10:10:40;;;;;;;;;;;;;;;;;;5044708;28;20261;-68
2021/03/23 10:13:05;;;;;;;;;;;;;;;;;;5060570;28;19935;-70
2021/03/23 10:15:31;;;;;;;;;;;;;;;;;;5051155;28;19978;-69
2021/03/23 10:17:56;;;;;;;;;;;;;;;;;;5035180;28;19924;-68
2021/03/23 10:20:22;;;;;;;;;;;;;;;;;;5051341;28;19912;-68
2021/03/23 10:22:47;;;;;;;;;;;;;;;;;;5052631;28;19913;-68
2021/03/23 10:25:12;;;;;;;;;;;;;;;;;;5036883;28;20299;-69
2021/03/23 10:27:37;;;;;;;;;;;;;;;;;;5074861;28;19920;-68
2021/03/23 10:30:02;;;;;;;;;;;;;;;;;;5048253;28;19912;-67
2021/03/23 10:32:27;;;;;;;;;;;;;;;;;;5052869;28;19952;-69
2021/03/23 10:34:52;;;;;;;;;;;;;;;;;;5053347;28;19919;-69
2021/03/23 10:37:18;;;;;;;;;;;;;;;;;;5044451;28;19931;-68
2021/03/23 10:39:43;;;;;;;;;;;;;;;;;;5079782;28;20020;-68
2021/03/23 10:42:08;;;;;;;;;;;;;;;;;;5078055;28;20063;-69
2021/03/23 10:44:33;;;;;;;;;;;;;;;;;;5039303;28;20304;-69
2021/03/23 10:46:58;;;;;;;;;;;;;;;;;;5036836;28;20287;-69
2021/03/23 10:51:48;;;;;;;;;;;;;;;;;;5053522;28;20382;-67
2021/03/23 10:54:14;;;;;;;;;;;;;;;;;;5053369;28;19915;-68
2021/03/23 10:56:39;;;;;;;;;;;;;;;;;;5045554;28;20004;-68
2021/03/23 10:59:04;;;;;;;;;;;;;;;;;;5083931;28;19956;-69
2021/03/23 11:01:29;;;;;;;;;;;;;;;;;;5059052;28;19922;-69
2021/03/23 11:03:56;;;;;;;;;;;;;;;;;;5072136;28;19909;-68
2021/03/23 11:06:21;;;;;;;;;;;;;;;;;;5058198;28;19920;-66
2021/03/23 11:08:46;;;;;;;;;;;;;;;;;;5045386;28;19920;-67
2021/03/23 11:11:11;;;;;;;;;;;;;;;;;;5041376;28;19912;-66
2021/03/23 11:13:36;;;;;;;;;;;;;;;;;;5057473;28;20431;-67
2021/03/23 11:16:06;;;;;;;;;;;;;;;;;;5043117;28;19913;-68
2021/03/23 11:18:32;;;;;;;;;;;;;;;;;;5036278;28;19974;-68
2021/03/23 11:20:57;;;;;;;;;;;;;;;;;;5075016;28;20008;-67
2021/03/23 11:23:24;;;;;;;;;;;;;;;;;;5043381;28;20380;-67
2021/03/23 11:25:49;;;;;;;;;;;;;;;;;;5040707;28;19912;-68
2021/03/23 11:28:14;;;;;;;;;;;;;;;;;;5046436;28;19920;-67
2021/03/23 11:30:39;;;;;;;;;;;;;;;;;;5054761;28;19913;-68
2021/03/23 11:33:04;;;;;;;;;;;;;;;;;;5049796;28;19931;-69
2021/03/23 11:35:29;;;;;;;;;;;;;;;;;;5051728;28;19917;-69
2021/03/23 11:37:54;;;;;;;;;;;;;;;;;;5044718;28;20449;-68
2021/03/23 11:40:19;;;;;;;;;;;;;;;;;;5043966;28;20009;-68
2021/03/23 11:42:45;;;;;;;;;;;;;;;;;;5046213;28;19995;-68
2021/03/23 11:45:10;;;;;;;;;;;;;;;;;;5036987;28;19960;-68
2021/03/23 11:47:38;;;;;;;;;;;;;;;;;;5035313;28;20408;-69
2021/03/23 11:50:03;;;;;;;;;;;;;;;;;;5055510;28;19955;-69
2021/03/23 11:52:29;;;;;;;;;;;;;;;;;;5074404;28;19968;-69
2021/03/23 11:54:54;;;;;;;;;;;;;;;;;;5052254;28;19913;-68
2021/03/23 11:57:19;;;;;;;;;;;;;;;;;;5049546;28;20115;-68
2021/03/23 11:59:44;;;;;;;;;;;;;;;;;;5039799;28;20283;-68
2021/03/23 12:02:09;;;;;;;;;;;;;;;;;;5038202;28;20273;-69
2021/03/23 12:04:34;;;;;;;;;;;;;;;;;;5041045;28;19920;-69
2021/03/23 12:06:59;;;;;;;;;;;;;;;;;;5050499;28;20260;-70
2021/03/23 12:09:25;;;;;;;;;;;;;;;;;;5080183;28;19917;-69
2021/03/23 12:11:50;;;;;;;;;;;;;;;;;;5051221;28;19921;-70
2021/03/23 12:14:15;;;;;;;;;;;;;;;;;;5050260;28;19919;-70
2021/03/23 12:16:40;;;;;;;;;;;;;;;;;;5051447;28;20428;-69
2021/03/23 12:19:05;;;;;;;;;;;;;;;;;;5076289;28;19919;-69
2021/03/23 12:21:31;;;;;;;;;;;;;;;;;;5081097;28;19919;-70
2021/03/23 12:23:56;;;;;;;;;;;;;;;;;;5050243;28;19913;-69
2021/03/23 12:26:21;;;;;;;;;;;;;;;;;;5046661;28;19932;-69
2021/03/23 12:28:46;;;;;;;;;;;;;;;;;;5048815;28;19913;-69
2021/03/23 12:31:11;;;;;;;;;;;;;;;;;;5047366;28;20004;-70
2021/03/23 12:33:37;;;;;;;;;;;;;;;;;;5079671;28;19956;-70
2021/03/23 12:36:02;;;;;;;;;;;;;;;;;;5039729;28;19951;-70
2021/03/23 12:38:27;;;;;;;;;;;;;;;;;;5036895;28;19919;-69
2021/03/23 12:40:52;;;;;;;;;;;;;;;;;;5054388;28;19917;-69
2021/03/23 12:43:17;;;;;;;;;;;;;;;;;;5041075;28;19959;-69
2021/03/23 12:45:42;;;;;;;;;;;;;;;;;;5044071;28;19948;-69
2021/03/23 12:48:08;;;;;;;;;;;;;;;;;;5051604;28;19954;-69
2021/03/23 12:50:33;;;;;;;;;;;;;;;;;;5048277;28;19962;-69
2021/03/23 12:52:58;;;;;;;;;;;;;;;;;;5053958;28;20300;-68
2021/03/23 12:55:23;;;;;;;;;;;;;;;;;;5071966;28;19944;-69
2021/03/23 12:57:48;;;;;;;;;;;;;;;;;;5041848;28;19925;-70
2021/03/23 13:00:13;;;;;;;;;;;;;;;;;;5037280;28;20364;-70
2021/03/23 13:02:38;;;;;;;;;;;;;;;;;;5048609;28;20405;-70
2021/03/23 13:05:04;;;;;;;;;;;;;;;;;;5076587;28;20309;-69
2021/03/23 13:07:30;;;;;;;;;;;;;;;;;;5043327;28;19917;-71
2021/03/23 13:09:55;;;;;;;;;;;;;;;;;;5071960;28;21531;-71
2021/03/23 13:12:20;;;;;;;;;;;;;;;;;;5043275;28;20292;-69
2021/03/23 13:14:46;;;;;;;;;;;;;;;;;;5045232;28;20276;-68
2021/03/23 13:17:11;;;;;;;;;;;;;;;;;;5083969;28;20360;-69
2021/03/23 13:19:36;;;;;;;;;;;;;;;;;;5053808;28;20329;-69
2021/03/23 13:22:01;;;;;;;;;;;;;;;;;;5046783;28;19913;-68
2021/03/23 13:24:26;;;;;;;;;;;;;;;;;;5070439;28;19932;-69
2021/03/23 13:26:52;;;;;;;;;;;;;;;;;;5069793;28;20394;-69
2021/03/23 13:29:19;;;;;;;;;;;;;;;;;;5038017;28;19914;-70
2021/03/23 13:31:45;;;;;;;;;;;;;;;;;;5054756;28;19928;-69
2021/03/23 13:34:10;;;;;;;;;;;;;;;;;;5049514;28;20027;-70
2021/03/23 13:36:35;;;;;;;;;;;;;;;;;;5074954;28;20003;-70
2021/03/23 13:39:00;;;;;;;;;;;;;;;;;;5039289;28;20023;-70
2021/03/23 13:41:25;;;;;;;;;;;;;;;;;;5043023;28;19983;-69
2021/03/23 13:43:51;;;;;;;;;;;;;;;;;;5077932;28;19919;-70
2021/03/23 13:46:16;;;;;;;;;;;;;;;;;;5075190;28;19913;-69
2021/03/23 13:48:41;;;;;;;;;;;;;;;;;;5054643;28;19990;-70
2021/03/23 13:51:08;;;;;;;;;;;;;;;;;;5085747;28;20330;-69
2021/03/23 13:53:33;;;;;;;;;;;;;;;;;;5048390;28;19921;-70
2021/03/23 13:55:58;;;;;;;;;;;;;;;;;;5035468;28;19917;-70
2021/03/23 13:58:23;;;;;;;;;;;;;;;;;;5034240;28;19913;-69
2021/03/23 14:00:49;;;;;;;;;;;;;;;;;;5038879;28;19955;-71
2021/03/23 14:03:14;;;;;;;;;;;;;;;;;;5085456;28;20340;-68
2021/03/23 14:05:39;;;;;;;;;;;;;;;;;;5083366;28;19913;-71
2021/03/23 14:08:04;;;;;;;;;;;;;;;;;;5086544;28;19912;-71
2021/03/23 14:10:30;;;;;;;;;;;;;;;;;;5043233;28;20007;-69
2021/03/23 14:12:56;;;;;;;;;;;;;;;;;;5035578;28;19909;-71
2021/03/23 14:15:21;;;;;;;;;;;;;;;;;;5055793;28;19995;-72
2021/03/23 14:17:47;;;;;;;;;;;;;;;;;;5051278;28;20046;-72
2021/03/23 14:20:12;;;;;;;;;;;;;;;;;;5054089;28;20382;-72
2021/03/23 14:22:37;;;;;;;;;;;;;;;;;;5041481;28;19913;-72
2021/03/23 14:25:02;;;;;;;;;;;;;;;;;;5080586;28;19920;-70
2021/03/23 14:27:27;;;;;;;;;;;;;;;;;;5049065;28;19916;-71
2021/03/23 14:29:52;;;;;;;;;;;;;;;;;;5088372;28;19913;-71
2021/03/23 14:32:17;;;;;;;;;;;;;;;;;;5050313;28;20439;-71
2021/03/23 14:34:43;;;;;;;;;;;;;;;;;;5076655;28;20007;-71
2021/03/23 14:37:10;;;;;;;;;;;;;;;;;;5061818;28;20423;-69
2021/03/23 14:39:35;;;;;;;;;;;;;;;;;;5033433;28;19971;-70
2021/03/23 14:42:00;;;;;;;;;;;;;;;;;;5073019;28;19909;-70
2021/03/23 14:44:25;;;;;;;;;;;;;;;;;;5047406;28;19909;-70
2021/03/23 14:46:51;;;;;;;;;;;;;;;;;;5064317;28;20390;-70
2021/03/23 14:49:16;;;;;;;;;;;;;;;;;;5033160;28;19952;-71
2021/03/23 14:51:41;;;;;;;;;;;;;;;;;;5046543;28;20352;-69
2021/03/23 14:54:06;;;;;;;;;;;;;;;;;;5042085;28;20392;-73
2021/03/23 14:56:31;;;;;;;;;;;;;;;;;;5033351;28;19913;-72
2021/03/23 14:58:57;;;;;;;;;;;;;;;;;;5073833;28;19924;-71
2021/03/23 15:01:25;;;;;;;;;;;;;;;;;;5066371;28;19921;-74
2021/03/23 15:03:50;;;;;;;;;;;;;;;;;;5047255;28;20364;-73
2021/03/23 15:06:15;;;;;;;;;;;;;;;;;;5082617;28;19920;-71
2021/03/23 15:08:40;;;;;;;;;;;;;;;;;;5038357;28;19997;-71
2021/03/23 15:11:05;;;;;;;;;;;;;;;;;;5085119;28;19913;-70
2021/03/23 15:13:31;;;;;;;;;;;;;;;;;;5094527;28;19999;-71
2021/03/23 15:15:56;;;;;;;;;;;;;;;;;;5052977;28;20049;-72
2021/03/23 15:18:21;;;;;;;;;;;;;;;;;;5035154;28;20015;-71
2021/03/23 15:20:46;;;;;;;;;;;;;;;;;;5044720;28;20339;-72
2021/03/23 15:23:11;;;;;;;;;;;;;;;;;;5052030;28;19919;-72
2021/03/23 15:25:36;;;;;;;;;;;;;;;;;;5052074;28;19913;-72
2021/03/23 15:28:01;;;;;;;;;;;;;;;;;;5083000;28;20283;-72
2021/03/23 15:30:27;;;;;;;;;;;;;;;;;;5038459;28;19913;-71
2021/03/23 15:32:52;;;;;;;;;;;;;;;;;;5038715;28;19921;-71
2021/03/23 15:35:17;;;;;;;;;;;;;;;;;;5062911;28;19912;-72
2021/03/23 15:37:42;;;;;;;;;;;;;;;;;;5040097;28;19917;-71
2021/03/23 15:40:07;;;;;;;;;;;;;;;;;;5039196;28;19913;-71
2021/03/23 15:42:32;;;;;;;;;;;;;;;;;;5065501;28;19966;-71
2021/03/23 15:44:58;;;;;;;;;;;;;;;;;;5069169;28;19917;-71
2021/03/23 15:47:23;;;;;;;;;;;;;;;;;;5061839;28;19912;-72
2021/03/23 15:49:48;;;;;;;;;;;;;;;;;;5058308;28;19921;-70
2021/03/23 15:52:13;;;;;;;;;;;;;;;;;;5055915;28;19913;-69
2021/03/23 15:54:38;;;;;;;;;;;;;;;;;;5041404;28;19920;-69
2021/03/23 15:57:04;;;;;;;;;;;;;;;;;;5049458;28;20444;-70
2021/03/23 15:59:29;;;;;;;;;;;;;;;;;;5066552;28;19917;-67
2021/03/23 16:01:54;;;;;;;;;;;;;;;;;;5043961;28;20364;-70
2021/03/23 16:04:19;;;;;;;;;;;;;;;;;;5058413;28;19913;-70
2021/03/23 16:06:44;;;;;;;;;;;;;;;;;;5068859;28;19948;-66
2021/03/23 16:09:09;;;;;;;;;;;;;;;;;;5058011;28;19921;-67
2021/03/23 16:11:35;;;;;;;;;;;;;;;;;;5077107;28;19951;-66
2021/03/23 16:14:00;;;;;;;;;;;;;;;;;;5052943;28;19967;-69
2021/03/23 16:16:25;;;;;;;;;;;;;;;;;;5036515;28;19917;-68
2021/03/23 16:18:50;;;;;;;;;;;;;;;;;;5054411;28;19921;-71
2021/03/23 16:21:15;;;;;;;;;;;;;;;;;;5048634;28;19913;-66
2021/03/23 16:23:40;;;;;;;;;;;;;;;;;;5034880;28;20379;-67
2021/03/23 16:26:06;;;;;;;;;;;;;;;;;;5042102;28;19912;-67
2021/03/23 16:28:31;;;;;;;;;;;;;;;;;;5078985;28;19963;-67
2021/03/23 16:30:56;;;;;;;;;;;;;;;;;;5046265;28;20402;-68
2021/03/23 16:33:21;;;;;;;;;;;;;;;;;;5061763;28;19917;-68